createdAt,value
2017-08-28T00:02:22.263Z,11.90
2017-08-28T00:04:49.835Z,11.80
2017-08-28T00:07:17.555Z,11.80
2017-08-28T00:09:45.057Z,11.70
2017-08-28T00:12:12.622Z,11.60
2017-08-28T00:14:40.984Z,11.60
2017-08-28T00:17:08.513Z,11.60
2017-08-28T00:19:36.060Z,11.50
2017-08-28T00:22:03.676Z,11.40
2017-08-28T00:24:31.258Z,11.40
2017-08-28T00:26:58.822Z,11.30
2017-08-28T00:29:26.409Z,11.30
2017-08-28T00:31:53.972Z,11.30
2017-08-28T00:34:21.555Z,11.30
2017-08-28T00:36:49.093Z,11.30
2017-08-28T00:39:16.683Z,11.30
2017-08-28T00:41:44.215Z,11.30
2017-08-28T00:44:11.747Z,11.20
2017-08-28T00:46:39.329Z,11.20
2017-08-28T00:49:06.840Z,11.10
2017-08-28T00:51:34.443Z,11.10
2017-08-28T00:54:01.983Z,11.00
2017-08-28T00:56:29.560Z,11.00
2017-08-28T00:58:57.301Z,10.90
2017-08-28T01:01:24.851Z,10.90
2017-08-28T01:03:52.370Z,11.00
2017-08-28T01:06:19.932Z,10.90
2017-08-28T01:08:47.526Z,10.90
2017-08-28T01:11:15.073Z,11.00
2017-08-28T01:13:42.656Z,10.90
2017-08-28T01:16:10.200Z,11.00
2017-08-28T01:18:37.736Z,11.00
2017-08-28T01:21:05.326Z,11.00
2017-08-28T01:23:32.848Z,11.00
2017-08-28T01:26:00.421Z,10.90
2017-08-28T01:28:28.017Z,10.90
2017-08-28T01:30:55.576Z,10.80
2017-08-28T01:33:23.132Z,10.80
2017-08-28T01:35:50.848Z,10.80
2017-08-28T01:38:18.395Z,10.80
2017-08-28T01:40:45.936Z,10.80
2017-08-28T01:43:13.536Z,10.90
2017-08-28T01:45:41.091Z,10.90
2017-08-28T01:48:08.613Z,10.90
2017-08-28T01:50:36.245Z,10.90
2017-08-28T01:53:03.761Z,10.90
2017-08-28T01:55:31.343Z,10.90
2017-08-28T01:57:59.104Z,10.90
2017-08-28T02:00:26.632Z,10.80
2017-08-28T02:02:54.179Z,10.80
2017-08-28T02:05:21.743Z,10.80
2017-08-28T02:07:49.312Z,10.70
2017-08-28T02:10:16.884Z,10.60
2017-08-28T02:12:44.486Z,10.60
2017-08-28T02:15:12.026Z,10.60
2017-08-28T02:17:39.588Z,10.50
2017-08-28T02:20:07.207Z,10.40
2017-08-28T02:22:34.696Z,10.40
2017-08-28T02:25:02.295Z,10.50
2017-08-28T02:27:30.040Z,10.60
2017-08-28T02:29:57.602Z,10.70
2017-08-28T02:32:25.149Z,10.70
2017-08-28T02:34:52.921Z,10.70
2017-08-28T02:37:20.485Z,10.60
2017-08-28T02:39:48.019Z,10.60
2017-08-28T02:42:15.581Z,10.50
2017-08-28T02:44:43.133Z,10.50
2017-08-28T02:47:10.666Z,10.40
2017-08-28T02:49:38.196Z,10.40
2017-08-28T02:52:05.770Z,10.40
2017-08-28T02:54:33.289Z,10.30
2017-08-28T02:57:01.452Z,10.30
2017-08-28T02:59:29.020Z,10.20
2017-08-28T03:01:57.485Z,10.20
2017-08-28T03:04:25.021Z,10.20
2017-08-28T03:06:53.502Z,10.30
2017-08-28T03:09:21.029Z,10.30
2017-08-28T03:11:48.601Z,10.30
2017-08-28T03:14:16.135Z,10.40
2017-08-28T03:16:43.660Z,10.40
2017-08-28T03:19:11.221Z,10.40
2017-08-28T03:21:38.758Z,10.40
2017-08-28T03:24:06.308Z,10.40
2017-08-28T03:26:33.918Z,10.30
2017-08-28T03:29:01.466Z,10.20
2017-08-28T03:31:28.977Z,10.10
2017-08-28T03:33:56.503Z,10.10
2017-08-28T03:36:24.089Z,10.20
2017-08-28T03:38:51.643Z,10.20
2017-08-28T03:41:19.279Z,10.10
2017-08-28T03:43:46.859Z,10.00
2017-08-28T03:46:14.460Z,10.00
2017-08-28T03:48:42.096Z,10.10
2017-08-28T03:51:09.674Z,10.10
2017-08-28T03:53:37.223Z,10.10
2017-08-28T03:56:05.032Z,10.10
2017-08-28T03:58:32.855Z,10.10
2017-08-28T04:01:00.411Z,10.10
2017-08-28T04:03:28.007Z,10.20
2017-08-28T04:05:55.543Z,10.20
2017-08-28T04:08:23.101Z,10.10
2017-08-28T04:10:50.715Z,10.10
2017-08-28T04:13:18.530Z,10.00
2017-08-28T04:15:46.085Z,10.00
2017-08-28T04:18:13.824Z,10.00
2017-08-28T04:20:41.361Z,9.90
2017-08-28T04:23:08.896Z,9.90
2017-08-28T04:25:36.451Z,10.00
2017-08-28T04:28:04.041Z,10.10
2017-08-28T04:30:32.388Z,10.20
2017-08-28T04:32:59.979Z,10.20
2017-08-28T04:35:27.536Z,10.30
2017-08-28T04:37:55.108Z,10.50
2017-08-28T04:40:22.682Z,10.70
2017-08-28T04:42:50.187Z,10.90
2017-08-28T04:45:17.796Z,10.90
2017-08-28T04:47:45.369Z,11.10
2017-08-28T04:50:12.924Z,11.50
2017-08-28T04:55:30.821Z,13.40
2017-08-28T04:57:58.372Z,14.50
2017-08-28T05:00:26.109Z,15.20
2017-08-28T05:02:53.673Z,15.40
2017-08-28T05:05:22.054Z,15.80
2017-08-28T05:07:49.643Z,16.30
2017-08-28T05:10:17.182Z,17.00
2017-08-28T05:12:44.727Z,17.70
2017-08-28T05:15:12.364Z,18.60
2017-08-28T05:17:39.913Z,19.40
2017-08-28T05:20:07.415Z,20.20
2017-08-28T05:22:35.013Z,21.10
2017-08-28T05:25:02.586Z,21.70
2017-08-28T05:27:30.092Z,22.20
2017-08-28T05:29:57.788Z,22.20
2017-08-28T05:32:25.348Z,22.50
2017-08-28T05:34:52.847Z,23.20
2017-08-28T05:37:20.467Z,23.30
2017-08-28T05:39:48.019Z,23.50
2017-08-28T05:42:15.514Z,24.00
2017-08-28T05:44:43.069Z,24.40
2017-08-28T05:47:10.619Z,24.50
2017-08-28T05:49:38.184Z,25.30
2017-08-28T05:52:05.876Z,25.40
2017-08-28T05:54:33.438Z,25.80
2017-08-28T05:57:00.942Z,25.90
2017-08-28T05:59:28.479Z,26.50
2017-08-28T06:01:56.069Z,26.80
2017-08-28T06:04:23.679Z,27.30
2017-08-28T06:06:51.450Z,27.20
2017-08-28T06:09:19.001Z,27.60
2017-08-28T06:11:46.558Z,27.80
2017-08-28T06:14:14.156Z,27.90
2017-08-28T06:16:41.704Z,28.20
2017-08-28T06:19:09.281Z,28.20
2017-08-28T06:24:29.550Z,27.50
2017-08-28T06:26:57.769Z,27.60
2017-08-28T06:29:25.317Z,27.70
2017-08-28T06:31:52.878Z,27.60
2017-08-28T06:34:20.507Z,28.40
2017-08-28T06:36:48.063Z,28.60
2017-08-28T06:39:15.607Z,28.40
2017-08-28T06:41:43.150Z,27.10
2017-08-28T06:44:10.723Z,26.60
2017-08-28T06:46:38.312Z,27.00
2017-08-28T06:49:06.041Z,27.60
2017-08-28T06:51:34.336Z,28.60
2017-08-28T06:54:01.893Z,28.60
2017-08-28T06:56:29.479Z,29.10
2017-08-28T06:58:57.057Z,29.70
2017-08-28T07:01:24.582Z,31.10
2017-08-28T07:03:52.162Z,30.80
2017-08-28T07:06:19.724Z,31.60
2017-08-28T07:08:47.486Z,32.30
2017-08-28T07:11:15.056Z,32.50
2017-08-28T07:13:43.584Z,32.20
2017-08-28T07:16:17.078Z,32.40
2017-08-28T07:18:44.670Z,33.00
2017-08-28T07:21:12.239Z,33.10
2017-08-28T07:23:39.819Z,33.00
2017-08-28T07:26:07.322Z,32.80
2017-08-28T07:28:34.859Z,33.20
2017-08-28T07:31:02.465Z,34.40
2017-08-28T07:33:30.021Z,33.00
2017-08-28T07:35:57.595Z,32.00
2017-08-28T07:38:25.131Z,31.70
2017-08-28T07:40:52.675Z,33.20
2017-08-28T07:43:20.236Z,32.50
2017-08-28T07:45:48.652Z,33.00
2017-08-28T07:48:16.198Z,33.00
2017-08-28T07:50:43.757Z,33.90
2017-08-28T07:53:11.345Z,34.60
2017-08-28T07:55:39.747Z,35.60
2017-08-28T07:58:07.264Z,37.10
2017-08-28T08:00:34.872Z,37.60
2017-08-28T08:03:02.424Z,38.60
2017-08-28T08:05:29.938Z,37.30
2017-08-28T08:07:57.555Z,36.70
2017-08-28T08:10:25.212Z,37.50
2017-08-28T08:12:52.755Z,37.10
2017-08-28T08:15:20.307Z,36.70
2017-08-28T08:17:47.795Z,35.40
2017-08-28T08:20:15.426Z,35.20
2017-08-28T08:22:42.969Z,35.50
2017-08-28T08:25:10.511Z,36.40
2017-08-28T08:27:38.066Z,36.90
2017-08-28T08:30:05.662Z,35.90
2017-08-28T08:32:33.186Z,33.30
2017-08-28T08:35:00.738Z,32.10
2017-08-28T08:37:28.336Z,32.10
2017-08-28T08:39:55.868Z,30.30
2017-08-28T08:42:24.193Z,30.80
2017-08-28T08:44:51.799Z,30.80
2017-08-28T08:47:20.028Z,30.50
2017-08-28T08:49:47.535Z,31.80
2017-08-28T08:52:15.134Z,33.00
2017-08-28T08:54:42.728Z,32.80
2017-08-28T08:57:10.270Z,31.60
2017-08-28T08:59:38.047Z,32.10
2017-08-28T09:02:05.566Z,33.50
2017-08-28T09:04:33.105Z,34.90
2017-08-28T09:07:00.848Z,35.00
2017-08-28T09:09:28.459Z,33.70
2017-08-28T09:11:55.984Z,33.60
2017-08-28T09:14:23.655Z,35.40
2017-08-28T09:16:51.202Z,36.80
2017-08-28T09:19:18.844Z,37.50
2017-08-28T09:21:46.577Z,37.50
2017-08-28T09:24:14.160Z,35.90
2017-08-28T09:26:41.768Z,35.30
2017-08-28T09:29:09.597Z,32.90
2017-08-28T09:31:37.929Z,27.70
2017-08-28T09:34:05.438Z,27.60
2017-08-28T09:36:33.989Z,25.00
2017-08-28T09:39:01.488Z,25.00
2017-08-28T09:41:29.047Z,24.40
2017-08-28T09:43:56.627Z,23.90
2017-08-28T09:46:24.208Z,23.10
2017-08-28T09:48:51.766Z,22.70
2017-08-28T09:51:19.366Z,22.40
2017-08-28T09:53:46.886Z,22.50
2017-08-28T09:56:14.394Z,22.50
2017-08-28T09:58:42.014Z,22.50
2017-08-28T10:01:09.515Z,22.70
2017-08-28T10:03:37.085Z,22.90
2017-08-28T10:06:04.693Z,23.70
2017-08-28T10:08:32.295Z,26.60
2017-08-28T10:10:59.861Z,29.30
2017-08-28T10:13:27.492Z,31.30
2017-08-28T10:15:55.034Z,33.50
2017-08-28T10:18:22.625Z,34.90
2017-08-28T10:20:50.172Z,35.70
2017-08-28T10:31:50.275Z,26.80
2017-08-28T10:34:17.842Z,26.80
2017-08-28T10:36:45.396Z,26.20
2017-08-28T10:39:12.978Z,25.20
2017-08-28T10:41:40.493Z,24.70
2017-08-28T10:44:08.068Z,24.50
2017-08-28T10:46:35.821Z,24.90
2017-08-28T10:49:03.495Z,24.90
2017-08-28T10:51:31.063Z,25.00
2017-08-28T10:53:58.679Z,25.90
2017-08-28T10:56:26.258Z,27.80
2017-08-28T10:58:53.822Z,30.20
2017-08-28T11:01:21.435Z,30.90
2017-08-28T11:03:49.071Z,31.00
2017-08-28T11:06:16.652Z,32.10
2017-08-28T11:08:44.243Z,33.30
2017-08-28T11:11:11.763Z,34.50
2017-08-28T11:13:39.314Z,35.20
2017-08-28T11:16:06.948Z,35.00
2017-08-28T11:18:34.515Z,33.90
2017-08-28T11:21:02.188Z,32.30
2017-08-28T11:23:29.974Z,32.30
2017-08-28T11:25:57.599Z,32.60
2017-08-28T11:28:25.227Z,33.30
2017-08-28T11:30:52.876Z,33.30
2017-08-28T11:33:20.624Z,32.90
2017-08-28T11:35:48.145Z,30.00
2017-08-28T11:38:15.754Z,27.60
2017-08-28T11:40:43.326Z,26.20
2017-08-28T11:43:10.836Z,25.00
2017-08-28T11:45:38.729Z,24.60
2017-08-28T11:48:06.292Z,24.40
2017-08-28T11:50:33.941Z,24.30
2017-08-28T11:53:01.584Z,24.40
2017-08-28T11:55:29.165Z,24.60
2017-08-28T11:57:56.669Z,24.70
2017-08-28T12:00:24.252Z,24.80
2017-08-28T12:02:51.792Z,25.30
2017-08-28T12:05:19.344Z,25.50
2017-08-28T12:07:46.926Z,25.70
2017-08-28T12:10:14.481Z,25.30
2017-08-28T12:12:42.054Z,24.90
2017-08-28T12:15:09.624Z,25.30
2017-08-28T12:17:37.188Z,24.90
2017-08-28T12:20:04.802Z,24.60
2017-08-28T12:22:32.381Z,24.60
2017-08-28T12:24:59.926Z,24.50
2017-08-28T12:27:27.491Z,24.30
2017-08-28T12:29:55.147Z,24.30
2017-08-28T12:32:22.666Z,24.40
2017-08-28T12:34:50.200Z,24.50
2017-08-28T12:37:18.031Z,25.00
2017-08-28T12:39:45.625Z,24.90
2017-08-28T12:42:13.132Z,24.80
2017-08-28T12:44:40.765Z,24.40
2017-08-28T12:47:08.397Z,24.00
2017-08-28T12:49:36.004Z,23.80
2017-08-28T12:52:03.639Z,23.60
2017-08-28T12:54:31.238Z,23.80
2017-08-28T12:56:59.713Z,23.80
2017-08-28T12:59:27.418Z,23.60
2017-08-28T13:01:54.961Z,23.60
2017-08-28T13:04:22.464Z,23.60
2017-08-28T13:06:50.094Z,23.60
2017-08-28T13:09:17.856Z,23.70
2017-08-28T13:11:45.464Z,23.60
2017-08-28T13:14:13.096Z,23.60
2017-08-28T13:16:40.684Z,23.60
2017-08-28T13:19:08.284Z,23.00
2017-08-28T13:21:36.052Z,22.80
2017-08-28T13:24:03.684Z,22.80
2017-08-28T13:26:31.285Z,22.80
2017-08-28T13:28:59.351Z,22.50
2017-08-28T13:31:26.984Z,22.50
2017-08-28T13:33:54.609Z,22.70
2017-08-28T13:36:22.214Z,22.90
2017-08-28T13:38:49.806Z,22.80
2017-08-28T13:41:17.335Z,22.70
2017-08-28T13:43:45.129Z,22.50
2017-08-28T13:46:12.668Z,22.40
2017-08-28T13:48:40.264Z,22.20
2017-08-28T13:51:07.823Z,22.10
2017-08-28T13:53:36.621Z,22.10
2017-08-28T13:56:04.206Z,22.10
2017-08-28T13:58:31.874Z,22.00
2017-08-28T14:00:59.459Z,22.00
2017-08-28T14:03:27.124Z,22.30
2017-08-28T14:05:54.773Z,22.40
2017-08-28T14:08:22.461Z,22.20
2017-08-28T14:10:50.111Z,21.90
2017-08-28T14:13:17.855Z,21.60
2017-08-28T14:15:45.529Z,21.30
2017-08-28T14:18:13.241Z,21.10
2017-08-28T14:23:14.987Z,20.90
2017-08-28T14:25:42.663Z,20.70
2017-08-28T14:28:11.274Z,20.80
2017-08-28T14:30:38.889Z,21.00
2017-08-28T14:33:06.638Z,21.30
2017-08-28T14:35:34.220Z,21.60
2017-08-28T14:38:01.753Z,22.00
2017-08-28T14:40:29.796Z,22.30
2017-08-28T14:42:57.419Z,22.40
2017-08-28T14:45:25.020Z,22.40
2017-08-28T14:47:53.650Z,22.50
2017-08-28T14:50:21.349Z,22.40
2017-08-28T14:52:48.999Z,21.90
2017-08-28T14:55:16.628Z,21.70
2017-08-28T14:57:44.245Z,21.50
2017-08-28T15:00:11.905Z,21.40
2017-08-28T15:02:39.667Z,21.30
2017-08-28T15:05:08.050Z,21.00
2017-08-28T15:07:36.357Z,20.80
2017-08-28T15:10:03.984Z,20.80
2017-08-28T15:12:31.600Z,20.70
2017-08-28T15:14:59.222Z,20.70
2017-08-28T15:17:26.858Z,20.70
2017-08-28T15:19:55.559Z,20.70
2017-08-28T15:22:23.188Z,20.60
2017-08-28T15:24:50.776Z,20.70
2017-08-28T15:27:18.360Z,20.80
2017-08-28T15:29:45.904Z,20.90
2017-08-28T15:32:13.473Z,20.90
2017-08-28T15:34:41.116Z,21.10
2017-08-28T15:37:08.676Z,21.30
2017-08-28T15:39:36.476Z,21.50
2017-08-28T15:42:04.864Z,21.60
2017-08-28T15:44:42.731Z,21.50
2017-08-28T15:47:14.777Z,21.50
2017-08-28T15:49:42.690Z,21.30
2017-08-28T15:52:11.533Z,21.10
2017-08-28T15:54:39.243Z,20.90
2017-08-28T15:57:06.925Z,20.70
2017-08-28T15:59:34.521Z,20.60
2017-08-28T16:02:02.084Z,20.60
2017-08-28T16:04:29.847Z,20.40
2017-08-28T16:06:57.401Z,20.30
2017-08-28T16:09:24.967Z,20.10
2017-08-28T16:11:52.697Z,19.90
2017-08-28T16:14:21.144Z,19.70
2017-08-28T16:16:48.801Z,19.60
2017-08-28T16:19:16.435Z,19.40
2017-08-28T16:21:44.063Z,19.30
2017-08-28T16:24:12.367Z,19.10
2017-08-28T16:26:40.156Z,18.90
2017-08-28T16:29:08.517Z,18.60
2017-08-28T16:31:36.280Z,18.60
2017-08-28T16:34:03.916Z,18.50
2017-08-28T16:36:31.571Z,18.60
2017-08-28T16:38:59.157Z,18.50
2017-08-28T16:41:26.775Z,18.50
2017-08-28T16:43:54.855Z,18.50
2017-08-28T16:46:23.540Z,18.50
2017-08-28T16:48:51.434Z,18.50
2017-08-28T16:51:19.545Z,18.50
2017-08-28T16:53:47.990Z,18.50
2017-08-28T16:56:15.645Z,18.50
2017-08-28T16:58:43.308Z,18.50
2017-08-28T17:01:11.716Z,18.50
2017-08-28T17:03:39.332Z,18.50
2017-08-28T17:06:06.949Z,18.50
2017-08-28T17:08:35.461Z,18.50
2017-08-28T17:11:06.028Z,18.50
2017-08-28T17:13:33.687Z,18.40
2017-08-28T17:16:01.641Z,18.40
2017-08-28T17:18:29.401Z,18.30
2017-08-28T17:20:57.782Z,18.20
2017-08-28T17:23:25.473Z,18.10
2017-08-28T17:25:53.258Z,17.90
2017-08-28T17:28:21.816Z,17.80
2017-08-28T17:30:49.425Z,17.60
2017-08-28T17:33:17.237Z,17.40
2017-08-28T17:35:44.952Z,17.20
2017-08-28T17:38:12.724Z,17.00
2017-08-28T17:40:42.561Z,16.90
2017-08-28T17:43:11.093Z,16.70
2017-08-28T17:45:38.933Z,16.60
2017-08-28T17:48:07.724Z,16.40
2017-08-28T17:50:36.385Z,16.20
2017-08-28T17:53:06.079Z,16.10
2017-08-28T17:55:34.373Z,16.00
2017-08-28T17:58:02.079Z,15.80
2017-08-28T18:00:29.785Z,15.70
2017-08-28T18:02:57.758Z,15.50
2017-08-28T18:05:25.438Z,15.40
2017-08-28T18:07:53.073Z,15.30
2017-08-28T18:10:20.896Z,15.20
2017-08-28T18:12:48.577Z,15.10
2017-08-28T18:15:16.408Z,15.00
2017-08-28T18:17:44.205Z,14.90
2017-08-28T18:20:12.751Z,14.80
2017-08-28T18:22:42.454Z,14.70
2017-08-28T18:25:10.308Z,14.70
2017-08-28T18:30:31.655Z,14.50
2017-08-28T18:32:59.335Z,14.40
2017-08-28T18:35:27.228Z,14.30
2017-08-28T18:37:55.038Z,14.30
2017-08-28T18:40:22.839Z,14.10
2017-08-28T18:42:50.597Z,14.10
2017-08-28T18:45:20.537Z,14.10
2017-08-28T18:47:49.002Z,14.00
2017-08-28T18:50:17.104Z,14.00
2017-08-28T18:52:45.019Z,13.90
2017-08-28T18:55:13.642Z,13.90
2017-08-28T18:57:42.487Z,13.80
2017-08-28T19:00:10.445Z,13.70
2017-08-28T19:02:38.229Z,13.60
2017-08-28T19:05:06.034Z,13.60
2017-08-28T19:07:34.492Z,13.60
2017-08-28T19:10:02.527Z,13.50
2017-08-28T19:12:30.689Z,13.50
2017-08-28T19:14:59.228Z,13.40
2017-08-28T19:17:28.435Z,13.40
2017-08-28T19:19:57.122Z,13.30
2017-08-28T19:22:25.566Z,13.20
2017-08-28T19:24:53.237Z,13.20
2017-08-28T19:27:21.294Z,13.10
2017-08-28T19:29:50.221Z,13.10
2017-08-28T19:32:23.193Z,13.00
2017-08-28T19:34:52.542Z,13.00
2017-08-28T19:37:20.477Z,13.00
2017-08-28T19:39:48.285Z,13.00
2017-08-28T19:42:16.876Z,13.00
2017-08-28T19:44:45.389Z,12.90
2017-08-28T19:47:13.287Z,12.90
2017-08-28T19:49:43.039Z,12.90
2017-08-28T19:52:10.889Z,12.90
2017-08-28T19:54:38.630Z,12.80
2017-08-28T19:57:06.398Z,12.80
2017-08-28T19:59:34.162Z,12.80
2017-08-28T20:02:02.973Z,12.70
2017-08-28T20:04:31.993Z,12.60
2017-08-28T20:06:59.721Z,12.60
2017-08-28T20:09:27.511Z,12.70
2017-08-28T20:11:56.449Z,12.70
2017-08-28T20:14:24.052Z,12.60
2017-08-28T20:16:51.925Z,12.60
2017-08-28T20:19:19.601Z,12.60
2017-08-28T20:21:47.312Z,12.60
2017-08-28T20:24:15.767Z,12.50
2017-08-28T20:26:43.849Z,12.40
2017-08-28T20:29:11.551Z,12.40
2017-08-28T20:31:39.132Z,12.30
2017-08-28T20:34:06.764Z,12.20
2017-08-28T20:36:34.382Z,12.10
2017-08-28T20:39:02.017Z,12.10
2017-08-28T20:41:29.664Z,12.10
2017-08-28T20:43:57.357Z,12.10
2017-08-28T20:46:25.463Z,12.00
2017-08-28T20:48:53.139Z,12.00
2017-08-28T20:51:20.694Z,12.00
2017-08-28T20:53:48.277Z,12.00
2017-08-28T20:56:16.069Z,11.90
2017-08-28T20:58:44.521Z,11.90
2017-08-28T21:01:12.275Z,11.90
2017-08-28T21:03:39.853Z,11.80
2017-08-28T21:06:07.442Z,11.80
2017-08-28T21:08:34.997Z,11.80
2017-08-28T21:11:02.601Z,11.80
2017-08-28T21:13:30.921Z,11.80
2017-08-28T21:15:58.523Z,11.80
2017-08-28T21:18:26.314Z,11.70
2017-08-28T21:20:53.863Z,11.70
2017-08-28T21:23:21.406Z,11.70
2017-08-28T21:25:49.539Z,11.60
2017-08-28T21:28:17.095Z,11.60
2017-08-28T21:30:44.619Z,11.60
2017-08-28T21:33:12.195Z,11.70
2017-08-28T21:35:39.753Z,11.70
2017-08-28T21:38:07.309Z,11.70
2017-08-28T21:40:35.063Z,11.80
2017-08-28T21:43:02.637Z,11.80
2017-08-28T21:45:30.205Z,11.70
2017-08-28T21:47:57.833Z,11.70
2017-08-28T21:50:25.433Z,11.70
2017-08-28T21:52:53.041Z,11.70
2017-08-28T21:55:20.621Z,11.70
2017-08-28T21:57:48.200Z,11.70
2017-08-28T22:00:16.571Z,11.60
2017-08-28T22:02:44.322Z,11.60
2017-08-28T22:05:11.969Z,11.50
2017-08-28T22:07:39.534Z,11.40
2017-08-28T22:10:07.151Z,11.40
2017-08-28T22:12:34.709Z,11.40
2017-08-28T22:15:02.257Z,11.40
2017-08-28T22:17:29.943Z,11.50
2017-08-28T22:19:57.554Z,11.50
2017-08-28T22:22:25.080Z,11.40
2017-08-28T22:24:52.829Z,11.30
2017-08-28T22:27:20.414Z,11.30
2017-08-28T22:29:47.961Z,11.20
2017-08-28T22:32:15.593Z,11.10
2017-08-28T22:34:43.126Z,11.20
2017-08-28T22:37:10.700Z,11.20
2017-08-28T22:39:38.315Z,11.20
2017-08-28T22:42:05.870Z,11.30
2017-08-28T22:44:33.420Z,11.30
2017-08-28T22:47:01.094Z,11.20
2017-08-28T22:49:28.661Z,11.20
2017-08-28T22:51:56.210Z,11.00
2017-08-28T22:54:23.818Z,11.00
2017-08-28T22:56:51.378Z,11.00
2017-08-28T22:59:18.940Z,10.90
2017-08-28T23:01:46.478Z,10.90
2017-08-28T23:04:13.983Z,10.90
2017-08-28T23:06:41.547Z,10.90
2017-08-28T23:09:09.115Z,10.80
2017-08-28T23:11:37.507Z,10.80
2017-08-28T23:14:05.098Z,10.80
2017-08-28T23:16:32.697Z,10.80
2017-08-28T23:19:00.199Z,10.70
2017-08-28T23:21:27.744Z,10.70
2017-08-28T23:23:55.360Z,10.60
2017-08-28T23:26:22.883Z,10.60
2017-08-28T23:28:50.476Z,10.60
2017-08-28T23:31:18.092Z,10.60
2017-08-28T23:33:45.644Z,10.60
2017-08-28T23:36:13.179Z,10.50
2017-08-28T23:38:40.931Z,10.50
2017-08-28T23:41:08.454Z,10.50
2017-08-28T23:43:35.993Z,10.50
2017-08-28T23:46:03.588Z,10.50
2017-08-28T23:48:31.111Z,10.40
2017-08-28T23:50:58.669Z,10.40
2017-08-28T23:53:26.285Z,10.40
2017-08-28T23:55:53.845Z,10.40
2017-08-28T23:58:21.408Z,10.40
